createdAt,value
2019-06-01T00:00:26.054Z,13.5
2019-06-01T00:01:15.934Z,13.4
2019-06-01T00:02:17.226Z,13.6
2019-06-01T00:04:27.604Z,13.6
2019-06-01T00:05:28.511Z,13.4
2019-06-01T00:06:27.894Z,13.5
2019-06-01T00:07:28.131Z,13.5
2019-06-01T00:08:49.272Z,13.5
2019-06-01T00:09:28.765Z,13.5
2019-06-01T00:10:19.042Z,13.5
2019-06-01T00:11:19.141Z,13.4
2019-06-01T00:12:19.299Z,13.4
2019-06-01T00:14:29.758Z,13.3
2019-06-01T00:15:29.977Z,13.4
2019-06-01T00:16:30.424Z,13.4
2019-06-01T00:17:30.390Z,13.4
2019-06-01T00:18:50.764Z,13.4
2019-06-01T00:19:31.226Z,13.4
2019-06-01T00:20:31.598Z,13.3
2019-06-01T00:21:31.465Z,13.3
2019-06-01T00:22:31.720Z,13.3
2019-06-01T00:23:52.816Z,13.2
2019-06-01T00:24:32.206Z,13.4
2019-06-01T00:25:22.140Z,13.3
2019-06-01T00:26:22.395Z,13.4
2019-06-01T00:27:26.754Z,13.3
2019-06-01T00:28:47.880Z,13.4
2019-06-01T00:29:27.218Z,13.3
2019-06-01T00:30:30.033Z,13.2
2019-06-01T00:31:30.146Z,13.3
2019-06-01T00:32:30.448Z,13.2
2019-06-01T00:33:51.698Z,13.3
2019-06-01T00:34:30.863Z,13.2
2019-06-01T00:35:30.896Z,13.3
2019-06-01T00:36:31.197Z,13.3
2019-06-01T00:37:31.387Z,13.3
2019-06-01T00:38:52.207Z,13.3
2019-06-01T00:39:31.910Z,13.3
2019-06-01T00:40:22.251Z,13.3
2019-06-01T00:41:22.577Z,13.3
2019-06-01T00:42:22.825Z,13.3
2019-06-01T00:43:46.114Z,13.6
2019-06-01T00:44:25.787Z,13.6
2019-06-01T00:45:15.587Z,13.6
2019-06-01T00:46:16.193Z,13.7
2019-06-01T00:47:16.002Z,13.7
2019-06-01T00:48:36.250Z,13.8
2019-06-01T00:49:26.404Z,13.8
2019-06-01T00:50:26.846Z,13.7
2019-06-01T00:51:27.189Z,13.6
2019-06-01T00:52:27.353Z,13.5
2019-06-01T00:53:47.597Z,13.6
2019-06-01T00:54:27.711Z,13.5
2019-06-01T00:55:17.959Z,13.4
2019-06-01T00:56:17.972Z,13.4
2019-06-01T00:57:18.111Z,13.4
2019-06-01T00:58:38.491Z,13.2
2019-06-01T00:59:28.430Z,13.2
2019-06-01T01:00:42.735Z,13.1
2019-06-01T01:01:28.700Z,13.1
2019-06-01T01:02:29.024Z,13.0
2019-06-01T01:03:52.327Z,13.0
2019-06-01T01:04:31.369Z,13.1
2019-06-01T01:05:21.392Z,13.0
2019-06-01T01:06:21.578Z,13.0
2019-06-01T01:07:22.154Z,13.0
2019-06-01T01:08:42.619Z,13.0
2019-06-01T01:09:32.720Z,13.0
2019-06-01T01:10:33.037Z,13.0
2019-06-01T01:11:33.065Z,12.9
2019-06-01T01:12:33.152Z,12.9
2019-06-01T01:13:53.626Z,13.0
2019-06-01T01:14:33.825Z,12.9
2019-06-01T01:16:26.560Z,12.9
2019-06-01T01:17:26.691Z,12.9
2019-06-01T01:19:26.874Z,12.7
2019-06-01T01:22:18.319Z,12.7
2019-06-01T01:23:18.220Z,12.8
2019-06-01T01:28:39.924Z,12.8
2019-06-01T01:29:31.719Z,12.8
2019-06-01T01:30:31.737Z,12.8
2019-06-01T01:31:32.096Z,12.8
2019-06-01T01:32:32.289Z,12.7
2019-06-01T01:34:33.028Z,12.7
2019-06-01T01:38:43.843Z,12.6
2019-06-01T01:39:34.250Z,12.6
2019-06-01T01:40:34.178Z,12.6
2019-06-01T01:41:34.643Z,12.5
2019-06-01T01:42:35.048Z,12.6
2019-06-01T01:43:55.058Z,12.6
2019-06-01T01:44:35.177Z,12.6
2019-06-01T01:45:35.288Z,12.5
2019-06-01T01:46:35.765Z,12.5
2019-06-01T01:47:35.776Z,12.5
2019-06-01T01:48:56.264Z,12.5
2019-06-01T01:49:46.264Z,12.4
2019-06-01T01:50:46.347Z,12.5
2019-06-01T01:51:46.517Z,12.4
2019-06-01T01:52:46.714Z,12.6
2019-06-01T01:54:07.136Z,12.6
2019-06-01T01:54:47.125Z,12.8
2019-06-01T01:55:47.322Z,12.8
2019-06-01T01:56:47.681Z,12.9
2019-06-01T01:57:51.161Z,13.0
2019-06-01T02:02:31.739Z,12.7
2019-06-01T02:03:53.526Z,12.8
2019-06-01T02:04:42.219Z,12.7
2019-06-01T02:05:42.324Z,12.7
2019-06-01T02:08:53.472Z,12.9
2019-06-01T02:13:54.081Z,12.8
2019-06-01T02:14:44.137Z,12.7
2019-06-01T02:15:44.455Z,12.7
2019-06-01T02:16:44.971Z,12.6
2019-06-01T02:17:44.885Z,12.5
2019-06-01T02:19:05.002Z,12.4
2019-06-01T02:19:55.876Z,12.5
2019-06-01T02:20:45.497Z,12.4
2019-06-01T02:21:45.516Z,12.5
2019-06-01T02:22:45.892Z,12.4
2019-06-01T02:24:06.115Z,12.4
2019-06-01T02:24:56.318Z,12.4
2019-06-01T02:25:56.916Z,12.4
2019-06-01T02:26:59.312Z,12.4
2019-06-01T02:27:48.154Z,12.4
2019-06-01T02:29:48.445Z,12.4
2019-06-01T02:31:40.360Z,12.5
2019-06-01T02:32:29.162Z,12.3
2019-06-01T02:33:49.660Z,12.3
2019-06-01T02:34:29.671Z,12.3
2019-06-01T02:35:20.182Z,12.2
2019-06-01T02:36:20.510Z,12.2
2019-06-01T02:37:20.777Z,12.2
2019-06-01T02:39:31.252Z,12.1
2019-06-01T02:40:31.535Z,12.2
2019-06-01T02:41:31.817Z,12.2
2019-06-01T02:42:31.883Z,12.1
2019-06-01T02:43:52.195Z,12.2
2019-06-01T02:44:32.208Z,12.3
2019-06-01T02:45:32.630Z,12.2
2019-06-01T02:46:35.513Z,12.3
2019-06-01T02:47:32.784Z,12.2
2019-06-01T02:48:52.827Z,12.2
2019-06-01T02:49:32.948Z,12.1
2019-06-01T02:50:33.066Z,12.2
2019-06-01T02:51:33.208Z,12.2
2019-06-01T02:52:33.328Z,12.2
2019-06-01T02:53:53.860Z,12.2
2019-06-01T02:54:34.045Z,12.2
2019-06-01T02:55:24.045Z,12.3
2019-06-01T02:56:24.293Z,12.3
2019-06-01T02:58:30.006Z,12.3
2019-06-01T02:59:29.915Z,12.3
2019-06-01T03:00:30.476Z,12.3
2019-06-01T03:01:30.278Z,12.2
2019-06-01T03:02:20.687Z,12.4
2019-06-01T03:03:20.942Z,12.3
2019-06-01T03:04:21.157Z,12.3
2019-06-01T03:05:01.572Z,12.4
2019-06-01T03:05:51.618Z,12.3
2019-06-01T03:06:51.935Z,12.3
2019-06-01T03:08:22.214Z,12.3
2019-06-01T03:09:22.317Z,12.4
2019-06-01T03:10:32.658Z,12.3
2019-06-01T03:11:32.756Z,12.4
2019-06-01T03:12:33.063Z,12.3
2019-06-01T03:13:33.181Z,12.4
2019-06-01T03:14:37.710Z,12.4
2019-06-01T03:15:58.227Z,12.4
2019-06-01T03:16:48.193Z,12.4
2019-06-01T03:17:48.206Z,12.3
2019-06-01T03:18:48.608Z,12.3
2019-06-01T03:19:48.806Z,12.4
2019-06-01T03:21:19.038Z,12.5
2019-06-01T03:21:59.598Z,12.5
2019-06-01T03:22:49.326Z,12.6
2019-06-01T03:23:49.597Z,12.6
2019-06-01T03:24:39.791Z,12.7
2019-06-01T03:26:10.133Z,12.8
2019-06-01T03:26:56.122Z,12.7
2019-06-01T03:27:45.260Z,12.8
2019-06-01T03:28:47.484Z,12.9
2019-06-01T03:29:47.504Z,12.8
2019-06-01T03:31:17.934Z,12.9
2019-06-01T03:32:18.892Z,13.0
2019-06-01T03:32:48.412Z,12.9
2019-06-01T03:33:48.683Z,13.0
2019-06-01T03:34:48.968Z,13.0
2019-06-01T03:37:00.834Z,13.0
2019-06-01T03:38:00.545Z,13.0
2019-06-01T03:38:59.979Z,12.9
2019-06-01T03:40:31.104Z,13.0
2019-06-01T03:41:31.416Z,12.9
2019-06-01T03:43:04.263Z,12.8
2019-06-01T03:44:04.400Z,12.8
2019-06-01T03:47:05.563Z,12.6
2019-06-01T03:47:55.640Z,12.5
2019-06-01T03:48:55.617Z,12.5
2019-06-01T03:51:58.665Z,12.3
2019-06-01T03:53:01.721Z,12.3
2019-06-01T03:54:01.117Z,12.1
2019-06-01T03:57:09.178Z,11.9
2019-06-01T03:58:11.179Z,11.9
2019-06-01T04:00:14.806Z,11.8
2019-06-01T04:01:14.886Z,11.8
2019-06-01T04:01:54.896Z,11.9
2019-06-01T04:02:45.171Z,11.8
2019-06-01T04:03:45.567Z,12.0
2019-06-01T04:04:45.968Z,12.0
2019-06-01T04:06:08.017Z,11.9
2019-06-01T04:09:46.332Z,12.1
2019-06-01T04:10:58.814Z,11.9
2019-06-01T04:11:40.443Z,11.9
2019-06-01T04:12:40.449Z,12.0
2019-06-01T04:14:47.988Z,11.9
2019-06-01T04:16:14.303Z,11.9
2019-06-01T04:16:44.340Z,11.8
2019-06-01T04:18:53.920Z,12.1
2019-06-01T04:19:48.947Z,12.1
2019-06-01T04:21:14.094Z,12.1
2019-06-01T04:21:56.570Z,12.1
2019-06-01T04:23:00.053Z,12.2
2019-06-01T04:24:04.003Z,12.0
2019-06-01T04:25:29.175Z,12.0
2019-06-01T04:26:31.554Z,12.1
2019-06-01T04:27:56.078Z,12.1
2019-06-01T04:28:57.988Z,12.0
2019-06-01T04:30:24.450Z,12.1
2019-06-01T04:31:30.083Z,12.1
2019-06-01T04:33:17.454Z,12.1
2019-06-01T04:35:48.378Z,12.1
2019-06-01T04:36:41.406Z,12.2
2019-06-01T04:37:14.003Z,12.2
2019-06-01T04:38:17.286Z,12.2
2019-06-01T04:40:34.260Z,12.3
2019-06-01T04:41:26.940Z,12.4
2019-06-01T04:42:09.730Z,12.4
2019-06-01T04:43:14.006Z,12.5
2019-06-01T04:44:18.344Z,12.5
2019-06-01T04:45:43.497Z,12.6
2019-06-01T04:46:24.037Z,12.7
2019-06-01T04:47:19.420Z,12.7
2019-06-01T04:48:20.830Z,12.8
2019-06-01T04:49:25.588Z,12.9
2019-06-01T04:50:40.151Z,13.0
2019-06-01T04:51:30.928Z,13.0
2019-06-01T04:55:53.959Z,13.0
2019-06-01T04:56:46.240Z,13.0
2019-06-01T04:58:06.822Z,12.9
2019-06-01T05:00:25.597Z,12.9
2019-06-01T05:01:11.189Z,13.0
2019-06-01T05:01:51.181Z,12.8
2019-06-01T05:03:04.741Z,13.0
2019-06-01T05:03:55.474Z,12.9
2019-06-01T05:05:09.432Z,13.0
2019-06-01T05:06:13.068Z,12.9
2019-06-01T05:06:54.174Z,13.0
2019-06-01T05:07:44.129Z,13.0
2019-06-01T05:08:46.036Z,13.0
2019-06-01T05:09:48.792Z,13.0
2019-06-01T05:11:27.772Z,13.1
2019-06-01T05:12:31.631Z,13.1
2019-06-01T05:13:25.282Z,13.0
2019-06-01T05:14:05.896Z,13.2
2019-06-01T05:16:51.323Z,13.3
2019-06-01T05:18:56.829Z,13.5
2019-06-01T05:20:36.681Z,13.6
2019-06-01T05:21:38.046Z,13.6
2019-06-01T05:22:43.182Z,13.6
2019-06-01T05:23:52.656Z,13.7
2019-06-01T05:24:44.315Z,13.7
2019-06-01T05:26:17.502Z,13.8
2019-06-01T05:29:34.805Z,13.9
2019-06-01T05:30:35.204Z,14.1
2019-06-01T05:31:49.814Z,14.2
2019-06-01T05:32:45.762Z,14.3
2019-06-01T05:33:42.803Z,14.3
2019-06-01T05:34:49.646Z,14.4
2019-06-01T05:36:25.750Z,14.5
2019-06-01T05:37:34.278Z,14.5
2019-06-01T05:41:16.986Z,14.7
2019-06-01T05:42:08.859Z,14.5
2019-06-01T05:43:29.193Z,14.6
2019-06-01T05:44:35.642Z,14.7
2019-06-01T05:46:52.516Z,14.8
2019-06-01T05:47:44.843Z,14.9
2019-06-01T05:48:54.798Z,15.0
2019-06-01T05:50:14.398Z,15.1
2019-06-01T05:51:22.963Z,15.1
2019-06-01T05:52:31.793Z,15.2
2019-06-01T05:53:38.782Z,15.2
2019-06-01T05:54:32.950Z,15.3
2019-06-01T05:56:00.138Z,15.4
2019-06-01T05:56:47.638Z,15.5
2019-06-01T06:00:04.812Z,15.6
2019-06-01T06:01:12.727Z,15.7
2019-06-01T06:02:58.487Z,16.2
2019-06-01T06:04:15.351Z,16.5
2019-06-01T06:05:37.322Z,17.1
2019-06-01T06:06:37.180Z,17.4
2019-06-01T06:07:48.896Z,18.0
2019-06-01T06:08:46.947Z,18.4
2019-06-01T06:09:57.078Z,18.9
2019-06-01T06:11:53.781Z,19.8
2019-06-01T06:12:52.867Z,20.1
2019-06-01T06:13:59.563Z,20.4
2019-06-01T06:16:22.812Z,20.9
2019-06-01T06:17:19.827Z,21.0
2019-06-01T06:18:18.496Z,21.1
2019-06-01T06:19:31.420Z,21.3
2019-06-01T06:21:18.715Z,21.4
2019-06-01T06:22:40.633Z,21.5
2019-06-01T06:23:18.379Z,21.5
2019-06-01T06:24:20.586Z,21.7
2019-06-01T06:25:22.620Z,21.8
2019-06-01T06:26:48.651Z,22.0
2019-06-01T06:27:39.015Z,22.0
2019-06-01T06:30:52.791Z,22.4
2019-06-01T06:34:36.840Z,23.4
2019-06-01T06:36:25.459Z,23.7
2019-06-01T06:37:32.791Z,23.6
2019-06-01T06:38:15.583Z,23.6
2019-06-01T06:39:11.943Z,23.6
2019-06-01T06:40:44.610Z,23.6
2019-06-01T06:41:52.701Z,23.7
2019-06-01T06:42:59.417Z,23.9
2019-06-01T06:45:35.246Z,24.1
2019-06-01T06:46:49.243Z,24.1
2019-06-01T06:47:56.091Z,24.2
2019-06-01T06:48:39.203Z,24.2
2019-06-01T06:49:49.658Z,24.1
2019-06-01T06:51:29.361Z,24.2
2019-06-01T06:53:38.269Z,24.1
2019-06-01T06:54:26.146Z,24.1
2019-06-01T06:56:05.439Z,24.1
2019-06-01T06:56:42.428Z,24.0
2019-06-01T06:57:48.253Z,24.0
2019-06-01T07:01:11.183Z,24.1
2019-06-01T07:02:59.440Z,24.3
2019-06-01T07:04:37.557Z,24.4
2019-06-01T07:09:06.684Z,24.6
2019-06-01T07:12:02.468Z,24.7
2019-06-01T07:13:01.544Z,24.9
2019-06-01T07:13:57.700Z,25.3
2019-06-01T07:15:48.414Z,25.6
2019-06-01T07:16:52.994Z,25.6
2019-06-01T07:17:19.565Z,25.6
2019-06-01T07:19:57.284Z,25.9
2019-06-01T07:21:52.910Z,26.3
2019-06-01T07:23:16.187Z,26.3
2019-06-01T07:24:14.040Z,26.2
2019-06-01T07:25:44.280Z,26.0
2019-06-01T07:27:46.262Z,26.0
2019-06-01T07:28:11.518Z,26.0
2019-06-01T07:31:29.117Z,26.2
2019-06-01T07:33:11.388Z,26.1
2019-06-01T07:34:33.149Z,26.1
2019-06-01T07:36:09.046Z,25.9
2019-06-01T07:36:57.405Z,25.7
2019-06-01T07:39:14.311Z,25.6
2019-06-01T07:40:35.057Z,25.6
2019-06-01T07:42:40.519Z,25.6
2019-06-01T07:44:59.197Z,25.8
2019-06-01T07:46:33.588Z,26.0
2019-06-01T07:48:20.838Z,25.9
2019-06-01T07:49:33.980Z,26.0
2019-06-01T07:51:07.270Z,25.9
2019-06-01T07:52:17.107Z,25.9
2019-06-01T07:54:17.388Z,25.8
2019-06-01T07:55:57.556Z,25.6
2019-06-01T07:57:00.049Z,25.6
2019-06-01T08:01:04.220Z,25.6
2019-06-01T08:02:10.273Z,25.3
2019-06-01T08:04:02.696Z,25.2
2019-06-01T08:06:30.856Z,24.9
2019-06-01T08:07:33.877Z,24.8
2019-06-01T08:08:10.996Z,24.8
2019-06-01T08:09:29.703Z,24.7
2019-06-01T08:11:41.394Z,24.2
2019-06-01T08:14:22.502Z,24.2
2019-06-01T08:16:12.143Z,24.4
2019-06-01T08:18:32.438Z,24.7
2019-06-01T08:19:34.408Z,24.7
2019-06-01T08:23:35.501Z,25.7
2019-06-01T08:24:58.794Z,25.9
2019-06-01T08:26:57.341Z,26.0
2019-06-01T08:28:03.734Z,26.2
2019-06-01T08:29:14.887Z,25.9
2019-06-01T08:34:47.977Z,26.6
2019-06-01T08:40:58.045Z,27.1
2019-06-01T08:41:58.072Z,27.0
2019-06-01T08:42:58.086Z,27.1
2019-06-01T08:43:58.141Z,27.1
2019-06-01T08:45:28.198Z,27.2
2019-06-01T08:46:08.216Z,27.4
2019-06-01T08:46:58.274Z,27.3
2019-06-01T08:48:58.310Z,27.6
2019-06-01T08:50:28.402Z,27.9
2019-06-01T08:51:08.408Z,27.7
2019-06-01T08:52:08.415Z,27.8
2019-06-01T08:53:08.437Z,27.8
2019-06-01T08:54:08.448Z,27.8
2019-06-01T08:55:38.462Z,28.0
2019-06-01T08:56:08.472Z,28.0
2019-06-01T08:56:58.475Z,28.1
2019-06-01T08:57:58.496Z,28.2
2019-06-01T08:58:58.507Z,28.3
2019-06-01T09:00:28.551Z,28.4
2019-06-01T09:01:08.532Z,28.5
2019-06-01T09:02:08.554Z,28.2
2019-06-01T09:03:08.585Z,28.0
2019-06-01T09:03:58.758Z,28.0
2019-06-01T09:05:29.964Z,27.7
2019-06-01T09:06:08.755Z,27.8
2019-06-01T09:07:08.753Z,27.6
2019-06-01T09:08:08.808Z,27.6
2019-06-01T09:09:11.647Z,27.2
2019-06-01T09:10:38.835Z,27.3
2019-06-01T09:11:08.859Z,27.1
2019-06-01T09:11:58.874Z,27.1
2019-06-01T09:12:58.910Z,27.2
2019-06-01T09:13:58.902Z,27.4
2019-06-01T09:15:29.677Z,27.3
2019-06-01T09:16:08.958Z,27.4
2019-06-01T09:17:08.958Z,27.3
2019-06-01T09:18:09.010Z,27.4
2019-06-01T09:19:11.258Z,27.3
2019-06-01T09:20:33.943Z,27.5
2019-06-01T09:21:09.104Z,27.4
2019-06-01T09:22:09.145Z,27.4
2019-06-01T09:23:09.124Z,27.5
2019-06-01T09:24:09.147Z,27.3
2019-06-01T09:25:39.163Z,27.6
2019-06-01T09:26:39.167Z,27.9
2019-06-01T09:27:39.207Z,28.0
2019-06-01T09:28:39.203Z,28.2
2019-06-01T09:30:09.270Z,28.3
2019-06-01T09:33:39.311Z,28.2
2019-06-01T09:36:01.928Z,28.3
2019-06-01T09:41:02.131Z,28.0
2019-06-01T09:46:02.127Z,28.2
2019-06-01T09:51:02.249Z,28.9
2019-06-01T09:56:02.312Z,28.4
2019-06-01T09:57:02.323Z,28.5
2019-06-01T10:01:02.369Z,28.2
2019-06-01T10:06:02.692Z,28.3
2019-06-01T10:11:02.579Z,28.1
2019-06-01T10:16:02.680Z,28.4
2019-06-01T10:17:02.716Z,28.5
2019-06-01T10:21:02.829Z,28.7
2019-06-01T10:26:02.979Z,28.5
2019-06-01T10:31:03.019Z,28.3
2019-06-01T10:32:03.986Z,28.3
2019-06-01T10:33:03.045Z,28.4
2019-06-01T10:34:03.137Z,28.3
2019-06-01T10:35:33.101Z,28.4
2019-06-01T10:36:20.241Z,28.5
2019-06-01T10:37:03.195Z,28.4
2019-06-01T10:38:03.207Z,28.4
2019-06-01T10:39:03.232Z,28.4
2019-06-01T10:40:03.233Z,28.4
2019-06-01T10:41:03.262Z,28.5
2019-06-01T10:42:03.364Z,28.5
2019-06-01T10:43:03.421Z,28.8
2019-06-01T10:44:03.471Z,28.5
2019-06-01T10:45:33.630Z,28.5
2019-06-01T10:46:13.555Z,28.6
2019-06-01T10:47:03.611Z,28.8
2019-06-01T10:48:03.603Z,28.8
2019-06-01T10:49:03.684Z,28.7
2019-06-01T10:50:03.640Z,28.9
2019-06-01T10:51:03.687Z,29.1
2019-06-01T10:52:03.685Z,29.2
2019-06-01T10:53:03.864Z,29.2
2019-06-01T10:54:03.882Z,29.0
2019-06-01T10:55:34.170Z,29.0
2019-06-01T10:56:13.949Z,29.1
2019-06-01T10:57:03.985Z,29.0
2019-06-01T10:58:04.016Z,29.2
2019-06-01T10:59:04.063Z,29.1
2019-06-01T11:00:38.580Z,29.1
2019-06-01T11:01:14.114Z,29.0
2019-06-01T11:02:04.213Z,29.2
2019-06-01T11:03:04.220Z,29.1
2019-06-01T11:04:04.325Z,28.8
2019-06-01T11:05:34.972Z,28.7
2019-06-01T11:06:14.280Z,28.8
2019-06-01T11:07:04.289Z,28.7
2019-06-01T11:08:04.319Z,28.9
2019-06-01T11:09:04.355Z,28.9
2019-06-01T11:10:04.364Z,29.1
2019-06-01T11:11:04.376Z,28.8
2019-06-01T11:12:04.389Z,29.0
2019-06-01T11:13:04.452Z,29.0
2019-06-01T11:14:04.432Z,28.9
2019-06-01T11:15:35.088Z,29.2
2019-06-01T11:16:14.496Z,29.3
2019-06-01T11:17:04.496Z,29.6
2019-06-01T11:18:04.651Z,29.4
2019-06-01T11:19:04.535Z,29.6
2019-06-01T11:20:35.183Z,29.6
2019-06-01T11:21:14.634Z,29.5
2019-06-01T11:22:05.775Z,29.6
2019-06-01T11:23:04.663Z,29.7
2019-06-01T11:24:04.688Z,29.5
2019-06-01T11:25:35.589Z,29.6
2019-06-01T11:26:14.729Z,29.8
2019-06-01T11:27:04.737Z,29.7
2019-06-01T11:28:04.771Z,29.8
2019-06-01T11:29:04.772Z,29.8
2019-06-01T11:30:35.686Z,29.8
2019-06-01T11:31:14.899Z,29.8
2019-06-01T11:32:04.887Z,29.7
2019-06-01T11:33:04.973Z,29.5
2019-06-01T11:34:05.025Z,29.6
2019-06-01T11:35:35.055Z,29.7
2019-06-01T11:36:15.000Z,29.6
2019-06-01T11:37:15.650Z,29.7
2019-06-01T11:38:15.071Z,29.8
2019-06-01T11:39:15.136Z,30.0
2019-06-01T11:40:15.169Z,30.1
2019-06-01T11:41:18.442Z,30.0
2019-06-01T11:42:15.169Z,30.1
2019-06-01T11:43:15.222Z,30.0
2019-06-01T11:44:45.273Z,29.9
2019-06-01T11:45:45.349Z,29.9
2019-06-01T11:47:15.407Z,29.6
2019-06-01T11:48:15.397Z,29.7
2019-06-01T11:49:45.415Z,30.0
2019-06-01T11:50:35.425Z,30.1
2019-06-01T11:51:15.427Z,30.0
2019-06-01T11:52:15.471Z,30.1
2019-06-01T11:53:15.509Z,30.0
2019-06-01T11:54:45.559Z,30.1
2019-06-01T11:55:45.628Z,30.1
2019-06-01T11:57:15.550Z,30.3
2019-06-01T11:58:15.579Z,30.0
2019-06-01T11:59:45.798Z,30.2
2019-06-01T12:00:45.890Z,30.3
2019-06-01T12:02:05.640Z,30.3
2019-06-01T12:03:05.672Z,30.5
2019-06-01T12:04:05.742Z,30.1
2019-06-01T12:05:35.916Z,29.7
2019-06-01T12:06:15.748Z,29.7
2019-06-01T12:07:17.323Z,29.6
2019-06-01T12:08:15.801Z,29.2
2019-06-01T12:09:46.090Z,29.1
2019-06-01T12:10:45.830Z,29.2
2019-06-01T12:12:15.993Z,29.5
2019-06-01T12:13:05.896Z,29.6
2019-06-01T12:14:05.908Z,29.7
2019-06-01T12:15:36.246Z,29.8
2019-06-01T12:16:15.967Z,30.0
2019-06-01T12:17:06.023Z,30.0
2019-06-01T12:18:06.024Z,30.2
2019-06-01T12:19:06.044Z,30.2
2019-06-01T12:20:36.605Z,30.3
2019-06-01T12:21:16.077Z,30.3
2019-06-01T12:22:16.120Z,30.5
2019-06-01T12:23:16.151Z,30.6
2019-06-01T12:24:47.275Z,30.3
2019-06-01T12:25:46.337Z,30.2
2019-06-01T12:27:16.292Z,29.9
2019-06-01T12:28:16.258Z,30.0
2019-06-01T12:29:37.367Z,30.0
2019-06-01T12:30:37.415Z,30.0
2019-06-01T12:31:16.360Z,29.9
2019-06-01T12:32:16.370Z,30.0
2019-06-01T12:33:16.405Z,29.7
2019-06-01T12:34:37.960Z,29.4
2019-06-01T12:35:37.793Z,29.2
2019-06-01T12:36:16.463Z,29.3
2019-06-01T12:37:32.246Z,29.5
2019-06-01T12:38:07.099Z,29.5
2019-06-01T12:39:06.528Z,29.8
2019-06-01T12:40:36.587Z,29.9
2019-06-01T12:41:16.605Z,29.9
2019-06-01T12:42:16.645Z,29.9
2019-06-01T12:43:16.658Z,30.0
2019-06-01T12:44:47.815Z,30.1
2019-06-01T12:45:47.796Z,30.2
2019-06-01T12:47:06.741Z,30.4
2019-06-01T12:48:06.784Z,30.8
2019-06-01T12:49:06.790Z,30.9
2019-06-01T12:50:36.808Z,31.1
2019-06-01T12:51:16.812Z,31.2
2019-06-01T12:52:16.817Z,31.2
2019-06-01T12:53:16.876Z,31.3
2019-06-01T12:54:36.949Z,31.1
2019-06-01T12:55:37.055Z,31.0
2019-06-01T12:56:06.979Z,31.0
2019-06-01T12:57:06.960Z,30.7
2019-06-01T12:58:07.005Z,30.5
2019-06-01T13:06:07.095Z,31.0
2019-06-01T13:07:07.102Z,30.9
2019-06-01T13:08:07.124Z,30.8
2019-06-01T13:09:07.242Z,30.9
2019-06-01T13:10:37.233Z,30.8
2019-06-01T13:11:07.236Z,30.9
2019-06-01T13:16:07.377Z,30.7
2019-06-01T13:17:07.829Z,30.7
2019-06-01T13:18:07.381Z,30.7
2019-06-01T13:19:07.434Z,30.8
2019-06-01T13:20:37.452Z,31.0
2019-06-01T13:21:07.519Z,31.1
2019-06-01T13:22:07.498Z,31.1
2019-06-01T13:26:07.547Z,30.6
2019-06-01T13:27:07.592Z,30.5
2019-06-01T13:28:07.611Z,30.4
2019-06-01T13:29:07.611Z,30.6
2019-06-01T13:30:37.629Z,30.8
2019-06-01T13:31:07.644Z,30.8
2019-06-01T13:36:07.858Z,31.4
2019-06-01T13:37:07.814Z,31.6
2019-06-01T13:38:12.027Z,31.6
2019-06-01T13:39:07.861Z,31.7
2019-06-01T13:40:37.882Z,31.6
2019-06-01T13:41:17.892Z,31.5
2019-06-01T13:42:07.915Z,31.6
2019-06-01T13:43:07.956Z,31.4
2019-06-01T13:44:38.044Z,31.3
2019-06-01T13:45:38.026Z,31.1
2019-06-01T13:46:08.040Z,31.3
2019-06-01T13:47:08.125Z,31.4
2019-06-01T13:48:08.137Z,31.6
2019-06-01T13:49:38.129Z,31.6
2019-06-01T13:50:38.134Z,31.5
2019-06-01T13:51:08.141Z,31.4
2019-06-01T13:52:08.339Z,31.2
2019-06-01T13:52:58.376Z,31.2
2019-06-01T13:56:08.287Z,31.1
2019-06-01T13:57:08.430Z,31.0
2019-06-01T13:58:08.303Z,31.1
2019-06-01T13:59:38.352Z,31.3
2019-06-01T14:00:38.378Z,31.3
2019-06-01T14:01:08.368Z,31.2
2019-06-01T14:01:58.376Z,31.4
2019-06-01T14:02:58.437Z,31.4
2019-06-01T14:04:03.009Z,31.4
2019-06-01T14:05:32.906Z,31.1
2019-06-01T14:06:12.921Z,30.9
2019-06-01T14:08:02.976Z,31.1
2019-06-01T14:09:32.990Z,31.0
2019-06-01T14:10:32.999Z,31.0
2019-06-01T14:11:13.073Z,31.1
2019-06-01T14:12:13.034Z,30.8
2019-06-01T14:13:05.252Z,30.6
2019-06-01T14:14:33.067Z,30.8
2019-06-01T14:15:33.089Z,30.9
2019-06-01T14:16:13.098Z,30.7
2019-06-01T14:17:03.113Z,30.5
2019-06-01T14:18:03.147Z,30.7
2019-06-01T14:19:33.166Z,30.9
2019-06-01T14:20:33.197Z,31.2
2019-06-01T14:21:13.195Z,31.2
2019-06-01T14:22:03.228Z,31.2
2019-06-01T14:23:03.240Z,31.2
2019-06-01T14:24:33.263Z,31.0
2019-06-01T14:25:33.248Z,31.0
2019-06-01T14:26:13.269Z,31.0
2019-06-01T14:27:03.278Z,31.0
2019-06-01T14:28:03.288Z,30.8
2019-06-01T14:29:33.298Z,30.8
2019-06-01T14:30:33.324Z,30.9
2019-06-01T14:31:13.321Z,30.9
2019-06-01T14:33:03.384Z,30.9
2019-06-01T14:36:13.451Z,30.7
2019-06-01T14:37:03.481Z,30.5
2019-06-01T14:41:13.573Z,30.4
2019-06-01T14:46:13.660Z,30.7
2019-06-01T14:51:13.800Z,30.7
2019-06-01T14:56:13.938Z,30.6
2019-06-01T15:06:14.289Z,30.2
2019-06-01T15:11:14.427Z,30.5
2019-06-01T15:16:14.618Z,31.3
2019-06-01T15:21:14.708Z,30.9
2019-06-01T15:26:14.893Z,30.8
2019-06-01T15:31:15.062Z,30.4
2019-06-01T15:32:15.191Z,30.0
2019-06-01T15:33:15.875Z,30.1
2019-06-01T15:34:45.282Z,30.1
2019-06-01T15:35:45.415Z,30.2
2019-06-01T15:36:25.323Z,30.3
2019-06-01T15:41:15.498Z,30.3
2019-06-01T15:42:15.513Z,30.3
2019-06-01T15:43:15.547Z,30.3
2019-06-01T15:44:45.599Z,30.1
2019-06-01T15:45:45.620Z,30.0
2019-06-01T15:46:25.626Z,30.1
2019-06-01T15:47:15.723Z,30.2
2019-06-01T15:51:15.780Z,30.0
2019-06-01T15:52:15.783Z,29.7
2019-06-01T15:53:15.853Z,29.7
2019-06-01T15:54:45.807Z,29.7
2019-06-01T15:55:45.897Z,30.0
2019-06-01T15:56:25.867Z,29.8
2019-06-01T16:01:16.001Z,30.0
2019-06-01T16:02:16.012Z,30.1
2019-06-01T16:03:16.019Z,30.1
2019-06-01T16:04:46.163Z,30.3
2019-06-01T16:05:46.106Z,30.4
2019-06-01T16:06:26.099Z,30.5
2019-06-01T16:11:16.263Z,30.2
2019-06-01T16:12:16.290Z,29.9
2019-06-01T16:13:16.342Z,29.9
2019-06-01T16:14:46.778Z,30.0
2019-06-01T16:15:46.461Z,30.0
2019-06-01T16:16:26.465Z,30.1
2019-06-01T16:21:16.563Z,29.9
2019-06-01T16:22:16.579Z,29.8
2019-06-01T16:23:16.650Z,29.8
2019-06-01T16:24:46.698Z,29.9
2019-06-01T16:25:50.055Z,30.1
2019-06-01T16:26:26.777Z,30.3
2019-06-01T16:36:16.954Z,30.1
2019-06-01T16:40:27.046Z,29.3
2019-06-01T16:46:17.197Z,29.0
2019-06-01T16:50:27.293Z,28.6
2019-06-01T16:56:17.521Z,29.0
2019-06-01T17:00:27.564Z,29.0
2019-06-01T17:06:17.776Z,29.8
2019-06-01T17:10:27.878Z,29.5
2019-06-01T17:15:18.052Z,29.3
2019-06-01T17:25:18.329Z,28.8
2019-06-01T17:26:08.875Z,28.5
2019-06-01T17:27:08.397Z,28.4
2019-06-01T17:28:09.158Z,28.1
2019-06-01T17:29:28.463Z,27.8
2019-06-01T17:30:10.371Z,27.7
2019-06-01T17:31:08.547Z,27.4
2019-06-01T17:32:19.766Z,27.3
2019-06-01T17:33:08.678Z,27.4
2019-06-01T17:35:13.398Z,26.9
2019-06-01T17:36:13.472Z,26.8
2019-06-01T17:37:13.547Z,26.6
2019-06-01T17:38:13.544Z,26.6
2019-06-01T17:40:36.501Z,26.2
2019-06-01T17:41:13.679Z,26.2
2019-06-01T17:44:23.707Z,26.0
2019-06-01T17:49:23.987Z,25.6
2019-06-01T17:54:24.131Z,25.2
2019-06-01T17:59:24.387Z,25.1
2019-06-01T18:04:24.779Z,24.8
2019-06-01T18:09:25.042Z,24.6
2019-06-01T18:14:25.215Z,24.2
2019-06-01T18:19:25.525Z,23.9
2019-06-01T18:24:25.894Z,23.7
2019-06-01T18:29:25.915Z,23.8
2019-06-01T18:34:25.975Z,23.7
2019-06-01T18:40:16.279Z,23.6
2019-06-01T18:41:19.803Z,23.6
2019-06-01T18:42:18.604Z,23.6
2019-06-01T18:43:16.436Z,23.4
2019-06-01T18:44:46.427Z,23.4
2019-06-01T18:45:26.446Z,23.2
2019-06-01T18:50:17.458Z,22.4
2019-06-01T18:51:16.609Z,22.3
2019-06-01T18:52:16.624Z,22.2
2019-06-01T18:53:16.681Z,22.0
2019-06-01T18:54:46.747Z,22.0
2019-06-01T18:55:27.742Z,22.0
2019-06-01T19:00:16.926Z,21.7
2019-06-01T19:01:46.983Z,21.7
2019-06-01T19:02:27.041Z,21.7
2019-06-01T19:03:27.349Z,21.5
2019-06-01T19:04:27.181Z,21.5
2019-06-01T19:05:27.219Z,21.5
2019-06-01T19:06:47.248Z,21.5
2019-06-01T19:07:27.236Z,21.4
2019-06-01T19:08:27.269Z,21.4
2019-06-01T19:09:27.335Z,21.4
2019-06-01T19:10:27.388Z,21.2
2019-06-01T19:11:57.467Z,21.3
2019-06-01T19:12:57.429Z,21.2
2019-06-01T19:13:57.635Z,21.2
2019-06-01T19:14:57.585Z,21.1
2019-06-01T19:16:27.646Z,21.0
2019-06-01T19:21:27.884Z,20.9
2019-06-01T19:26:28.121Z,20.8
2019-06-01T19:26:58.193Z,20.8
2019-06-01T19:27:58.240Z,20.9
2019-06-01T19:33:28.732Z,20.6
2019-06-01T19:34:13.004Z,20.6
2019-06-01T19:36:03.007Z,20.7
2019-06-01T19:37:02.994Z,20.6
2019-06-01T19:38:03.059Z,20.5
2019-06-01T19:39:03.094Z,20.5
2019-06-01T19:40:03.088Z,20.4
2019-06-01T19:41:23.158Z,20.5
2019-06-01T19:42:03.177Z,20.4
2019-06-01T19:43:03.211Z,20.4
2019-06-01T19:44:03.399Z,20.5
2019-06-01T19:45:03.646Z,20.5
2019-06-01T19:46:23.383Z,20.5
2019-06-01T19:47:03.391Z,20.5
2019-06-01T19:48:03.438Z,20.4
2019-06-01T19:49:03.594Z,20.4
2019-06-01T19:50:03.531Z,20.4
2019-06-01T19:51:23.615Z,20.4
2019-06-01T19:52:03.637Z,20.4